Historyczne dane pomiarowe

Dodano dane terminowe – wersja testowa.

Dane z okresu 1951-2019

Wersja bazy: 1.34 [2019-03-16, lista zmian], aktualizacja planowana na 2019-04-15

Dane meteo z obszaru Polski uzyskane na podstawie danych udostępnionych przez Instytut Meteorologii i Gospodarki Wodnej – Państwowy Instytut Badawczy.

 

Wybierz Datę:    

       

TemperaturaWilgotnośćWiatrCiśnienieOpadyŚniegCzas trwania zjawisk
 Stacja t tx tn tng RH VA  wxwx mslp ppp RRR   cm mm wxwxwxwxwxwxwx
1987-08-14 16.2 23.2 8.0--- 3.3 0.7---- 0.1------------
1987-08-13 14.1 19.2 9.7--- 2.0 2.3---- 0.0------------
1987-08-12 14.0 19.2 8.5--- 2.3 3.0---- 0.0------------
1987-08-11 14.3 18.2 12.5--- 4.7 3.3---- 0.7------------
1987-08-10 16.5 20.2 9.8--- 8.0 1.3---- 2.6------------
1987-08-09 16.7 24.7 6.0--- 1.7 0.7---- 0.0------------
1987-08-08 14.9 20.4 12.0--- 3.0 1.3---- 0.0------------
1987-08-07 13.2 19.2 7.7--- 3.3 1.3---- 0.0------------
1987-08-06 12.2 16.7 9.5--- 4.7 1.0---- 0.4------------
1987-08-05 13.7 18.2 9.0--- 5.0 1.0---- 0.2------------
1987-08-04 15.7 19.7 12.0--- 6.0 0.7---- 4.0------------
1987-08-03 17.1 19.7 10.5--- 3.3 2.7---- 0.0------------
1987-08-02 15.6 19.8 8.5--- 4.0 2.0---- 7.6------------
1987-08-01 17.1 22.2 9.5--- 1.0 1.7---- 7.8------------
1987-07-31 17.3 22.7 14.5--- 8.0 2.0---- 7.4------------
1987-07-30 20.5 25.2 13.0--- 3.0 0.7---- 0.0------------
1987-07-29 16.0 20.2 9.7--- 4.7 0.7---- 0.1------------
1987-07-28 16.6 19.2 12.0--- 7.3 2.7---- 6.4------------
1987-07-27 15.0 18.7 9.1--- 2.3 3.7---- 4.2------------
1987-07-26 13.7 19.7 12.0--- 7.3 2.0---- 18.8------------
1987-07-25 20.8 26.0 16.5--- 0.7 1.3---- 3.2------------
1987-07-24 23.3 29.1 17.5--- 5.0 1.3---- 1.0------------
1987-07-23 24.6 29.6 14.5--- 0.3 0.3---- 0.1------------
1987-07-22 22.5 25.7 15.0--- 0.0 0.7---- 0.0------------
1987-07-21 22.8 27.7 13.5--- 2.3 1.7---- 0.0------------
1987-07-20 22.7 26.7 18.5--- 0.7 2.3---- 0.0------------
1987-07-19 26.3 31.4 18.5--- 1.7 2.3---- 0.2------------
1987-07-18 26.1 31.7 16.5--- 0.3 1.7---- 0.0------------
1987-07-17 26.1 29.6 14.0--- 5.3 0.7---- 0.0------------
1987-07-16 23.3 28.7 9.0--- 1.0 1.3---- 0.0------------
1987-07-15 19.2 23.2 7.5--- 0.7 1.0---- 0.0------------
1987-07-14 18.3 25.9 11.5--- 1.0 1.0---- 0.0------------
1987-07-13 20.7 26.2 15.0--- 1.3 2.3---- 0.0------------
1987-07-12 25.7 29.6 13.7--- 4.3 2.7---- 2.4------------
1987-07-11 17.4 26.2 10.5--- 2.7 2.3---- 0.0------------
1987-07-10 17.7 19.7 16.0--- 2.0 3.7---- 0.0------------
1987-07-09 18.9 26.8 16.0--- 6.7 2.3---- 5.8------------
1987-07-08 25.8 29.6 10.3--- 0.3 1.0---- 0.0------------
1987-07-07 22.0 27.2 7.5--- 0.0 1.0---- 0.0------------
1987-07-06 19.8 23.7 8.5--- 0.0 0.3---- 0.0------------
1987-07-05 18.0 24.2 13.5--- 3.0 2.7---- 0.0------------
1987-07-04 20.0 24.1 15.5--- 5.0 1.3---- 1.6------------
1987-07-03 21.5 23.6 16.5--- 6.7 1.0---- 0.0------------
1987-07-02 21.2 28.4 19.2--- 6.0 1.3---- 0.0------------
1987-07-01 28.0 31.4 16.5--- 3.7 0.7---- 0.0------------
1987-06-30 26.8 31.1 15.0 10.9-- 0.0 0.3---- 0.0------------
1987-06-29 23.5 26.6 14.0 10.4-- 3.7 0.7---- 0.0------------
1987-06-28 21.3 26.3 13.5 9.9-- 1.3 2.7---- 0.0------------
1987-06-27 21.4 24.6 15.0 10.4-- 5.7 1.0---- 0.0------------
1987-06-26 20.5 24.1 9.0 8.9-- 4.7 1.3---- 0.0------------
1987-06-25 17.3 19.6 14.5 9.9-- 3.7 2.3---- 0.1------------
1987-06-24 18.4 21.6 13.3 9.4-- 3.7 1.7---- 0.0------------
1987-06-23 18.5 21.1 12.7 16.8-- 2.3 1.0---- 12.2------------
1987-06-22 19.2 23.6 8.5 9.4-- 2.3 1.3---- 1.0------------
1987-06-21 20.8 25.6 8.5 4.4-- 1.3 0.7---- 0.0------------
1987-06-20 17.5 22.6 5.1 8.9-- 0.0 1.3---- 0.0------------
1987-06-19 15.3 18.8 8.7 6.9-- 2.7 1.0---- 0.0------------
1987-06-18 13.4 18.1 5.5 6.4-- 3.7 0.7---- 3.0------------
1987-06-17 12.5 16.1 9.0 9.4-- 5.0 1.7---- 2.0------------
1987-06-16 15.0 26.1 12.2 12.9-- 7.0 4.0---- 3.0------------
522.6 ms

 

Źródłem pochodzenia danych jest Instytut Meteorologii i Gospodarki Wodnej – Państwowy Instytut Badawczy. Dane Instytutu Meteorologii i Gospodarki Wodnej – Państwowego Instytutu Badawczego zostały przetworzone.

Dane źródłowe można odnaleźć na stronie https://dane.imgw.pl